Time;durP1;ratioP1;P1;durP2;ratioP2;P2;SDS_P1;SDS_P2;PMS_P1;PMS_P2;Temp;Humidity;BMP_temperature;BMP_pressure;BME280_temperature;BME280_humidity;BME280_pressure;Samples;Min_cycle;Max_cycle;Signal;HPM_P1;HPM_P2
2023/03/14 00:01:20;;;;;;;3.38;1.20;;;8.50;99.90;;;;;;6287296;22;20034;-84
2023/03/14 00:04:07;;;;;;;2.50;1.10;;;8.50;99.90;;;;;;6286880;22;20100;-84
2023/03/14 00:06:57;;;;;;;3.13;1.30;;;8.40;99.90;;;;;;6280404;22;20094;-84
2023/03/14 00:09:44;;;;;;;1.00;0.90;;;8.50;99.90;;;;;;6256446;22;20051;-84
2023/03/14 00:12:34;;;;;;;1.13;0.93;;;8.50;99.90;;;;;;6282163;22;20661;-82
2023/03/14 00:15:23;;;;;;;1.42;1.10;;;8.50;99.90;;;;;;6282327;22;20475;-84
2023/03/14 00:18:10;;;;;;;2.47;1.13;;;8.50;99.90;;;;;;6261730;22;20028;-83
2023/03/14 00:20:59;;;;;;;1.40;1.00;;;8.50;99.90;;;;;;6291318;22;20028;-84
2023/03/14 00:23:46;;;;;;;1.27;1.08;;;8.50;99.90;;;;;;6266717;22;20042;-83
2023/03/14 00:26:33;;;;;;;1.30;0.98;;;8.50;99.90;;;;;;6262533;22;20027;-83
2023/03/14 00:29:21;;;;;;;3.67;1.20;;;8.50;99.90;;;;;;6256347;22;20210;-81
2023/03/14 00:32:09;;;;;;;3.72;1.08;;;8.50;99.90;;;;;;6257055;22;20318;-82
2023/03/14 00:34:56;;;;;;;1.00;0.90;;;8.60;99.90;;;;;;6252754;22;20023;-87
2023/03/14 00:37:48;;;;;;;2.30;0.82;;;8.60;99.90;;;;;;6252247;22;20103;-85
2023/03/14 00:40:38;;;;;;;;;;;8.70;99.90;;;;;;6277832;22;20028;-84
2023/03/14 00:43:28;;;;;;;1.35;0.77;;;8.70;99.90;;;;;;6256576;22;19915;-82
2023/03/14 00:46:15;;;;;;;0.70;0.70;;;8.70;99.90;;;;;;6277349;22;20326;-83
2023/03/14 00:49:04;;;;;;;1.08;0.80;;;8.70;99.90;;;;;;6277003;22;20100;-83
2023/03/14 00:51:52;;;;;;;1.65;0.80;;;8.70;99.90;;;;;;6276773;22;20023;-84
2023/03/14 00:54:39;;;;;;;0.80;0.80;;;8.70;99.90;;;;;;6276258;22;20016;-84
2023/03/14 00:57:28;;;;;;;2.13;1.05;;;8.60;99.90;;;;;;6254659;22;20095;-82
2023/03/14 01:00:17;;;;;;;1.38;1.00;;;8.70;99.90;;;;;;6277833;22;20024;-85
2023/03/14 01:03:05;;;;;;;0.70;0.70;;;8.70;99.90;;;;;;6276962;22;20103;-82
2023/03/14 01:05:52;;;;;;;0.70;0.70;;;8.60;99.90;;;;;;6277745;22;20094;-83
2023/03/14 01:08:40;;;;;;;0.85;0.70;;;8.70;99.90;;;;;;6276660;22;20030;-82
2023/03/14 01:11:28;;;;;;;1.02;0.90;;;8.60;99.90;;;;;;6277724;22;20030;-82
2023/03/14 01:14:15;;;;;;;1.73;0.73;;;8.60;99.90;;;;;;6256702;22;20027;-83
2023/03/14 01:17:05;;;;;;;0.88;0.80;;;8.70;99.90;;;;;;6277291;22;20427;-83
2023/03/14 01:19:52;;;;;;;1.33;0.65;;;8.70;99.90;;;;;;6284525;22;20028;-80
2023/03/14 01:22:43;;;;;;;0.75;0.75;;;8.70;99.90;;;;;;6263030;22;20419;-82
2023/03/14 01:25:32;;;;;;;2.40;1.02;;;8.70;99.90;;;;;;6276960;22;20055;-82
2023/03/14 01:28:19;;;;;;;1.65;0.90;;;8.70;99.90;;;;;;6275863;22;20055;-84
2023/03/14 01:31:12;;;;;;;1.17;0.80;;;8.70;99.90;;;;;;6274881;22;20069;-81
2023/03/14 01:33:59;;;;;;;4.15;0.80;;;8.70;99.90;;;;;;6255898;22;20304;-82
2023/03/14 01:36:46;;;;;;;4.18;0.90;;;8.70;99.90;;;;;;6278602;22;20027;-82
2023/03/14 01:39:33;;;;;;;1.20;1.00;;;8.60;99.90;;;;;;6275272;22;20381;-83
2023/03/14 01:42:23;;;;;;;2.05;1.15;;;8.60;99.90;;;;;;6254735;22;20020;-81
2023/03/14 01:45:50;;;;;;;0.98;0.80;;;8.50;99.90;;;;;;6255770;22;20055;-84
2023/03/14 01:48:42;;;;;;;0.85;0.80;;;8.40;99.90;;;;;;6254525;22;20027;-84
2023/03/14 01:51:56;;;;;;;2.45;1.13;;;8.40;99.90;;;;;;6278526;22;20020;-83
2023/03/14 01:54:47;;;;;;;1.10;0.90;;;8.40;99.90;;;;;;6274729;22;20026;-81
2023/03/14 01:57:43;;;;;;;0.65;0.65;;;8.30;99.90;;;;;;6254043;22;20028;-83
2023/03/14 02:00:31;;;;;;;1.23;0.98;;;8.30;99.90;;;;;;6255425;22;20386;-82
2023/03/14 02:03:24;;;;;;;1.02;1.00;;;8.30;99.90;;;;;;6278462;22;20076;-81
2023/03/14 02:06:11;;;;;;;0.98;0.85;;;8.30;99.90;;;;;;6278248;22;20128;-83
2023/03/14 02:09:01;;;;;;;1.88;1.00;;;8.30;99.90;;;;;;6257400;22;20441;-82
2023/03/14 02:11:50;;;;;;;2.03;0.90;;;8.30;99.90;;;;;;6276056;22;20024;-84
2023/03/14 02:14:42;;;;;;;1.27;0.70;;;8.30;99.90;;;;;;6279599;22;20019;-83
2023/03/14 02:17:37;;;;;;;1.23;0.90;;;8.30;99.90;;;;;;6282800;22;20059;-82
2023/03/14 02:20:52;;;;;;;1.50;0.80;;;8.30;99.90;;;;;;6280328;22;20057;-83
2023/03/14 02:24:04;;;;;;;2.05;0.93;;;8.20;99.90;;;;;;6277706;22;20038;-83
2023/03/14 02:27:10;;;;;;;1.42;1.00;;;8.30;99.90;;;;;;6256060;22;20031;-82
2023/03/14 02:30:07;;;;;;;2.13;0.80;;;8.20;99.90;;;;;;6279229;22;20031;-82
2023/03/14 02:32:59;;;;;;;0.90;0.90;;;8.20;99.90;;;;;;6278040;22;20023;-85
2023/03/14 02:35:57;;;;;;;1.40;0.88;;;8.20;99.90;;;;;;6277400;22;20019;-82
2023/03/14 02:39:05;;;;;;;1.35;0.73;;;8.20;99.90;;;;;;6256143;22;20097;-83
2023/03/14 02:41:52;;;;;;;0.75;0.75;;;8.20;99.90;;;;;;6276055;22;20051;-82
2023/03/14 02:44:54;;;;;;;2.83;0.80;;;8.20;99.90;;;;;;6279035;22;20028;-81
2023/03/14 02:47:55;;;;;;;1.95;0.80;;;8.20;99.90;;;;;;6275655;22;20383;-85
2023/03/14 02:50:45;;;;;;;1.77;0.98;;;8.30;99.90;;;;;;6256916;22;20023;-80
2023/03/14 02:53:35;;;;;;;2.28;0.90;;;8.20;99.90;;;;;;6276295;22;20055;-82
2023/03/14 02:56:22;;;;;;;1.23;0.90;;;8.20;99.90;;;;;;6255522;22;20019;-82
2023/03/14 02:59:11;;;;;;;2.67;1.13;;;8.10;99.90;;;;;;6255341;22;20063;-82
2023/03/14 03:02:02;;;;;;;1.92;1.00;;;8.20;99.90;;;;;;6276201;22;20106;-85
2023/03/14 03:04:51;;;;;;;3.13;1.00;;;8.10;99.90;;;;;;6275738;22;20024;-81
2023/03/14 03:07:38;;;;;;;3.03;1.10;;;8.20;99.90;;;;;;6273498;22;20371;-81
2023/03/14 03:10:26;;;;;;;1.23;1.13;;;8.10;99.90;;;;;;6275117;22;20031;-83
2023/03/14 03:13:14;;;;;;;1.45;1.25;;;8.20;99.90;;;;;;6278004;22;20447;-84
2023/03/14 03:16:06;;;;;;;3.40;1.10;;;8.10;99.90;;;;;;6275442;22;20055;-83
2023/03/14 03:18:53;;;;;;;;;;;8.10;99.90;;;;;;6254840;22;20028;-82
2023/03/14 03:21:43;;;;;;;3.38;1.20;;;8.10;69.60;;;;;;6255095;22;19919;-82
2023/03/14 03:24:33;;;;;;;5.57;1.30;;;8.10;1.00;;;;;;6277717;22;20027;-83
2023/03/14 03:27:22;;;;;;;2.30;1.13;;;8.10;99.90;;;;;;6256015;22;20023;-80
2023/03/14 03:30:10;;;;;;;3.47;1.00;;;8.20;99.90;;;;;;6278264;22;20339;-81
2023/03/14 03:32:57;;;;;;;4.13;1.40;;;8.10;1.00;;;;;;6252423;22;20081;-81
2023/03/14 03:35:45;;;;;;;2.20;1.20;;;8.00;99.90;;;;;;6277906;22;20335;-81
2023/03/14 03:38:33;;;;;;;3.95;1.30;;;8.00;99.90;;;;;;6253600;22;20020;-83
2023/03/14 03:41:20;;;;;;;3.22;1.30;;;8.00;1.00;;;;;;6256181;22;20077;-82
2023/03/14 03:44:08;;;;;;;4.93;1.17;;;8.00;99.90;;;;;;6273686;22;20052;-82
2023/03/14 03:46:55;;;;;;;3.58;1.38;;;8.00;23.30;;;;;;6280121;22;20023;-82
2023/03/14 03:49:43;;;;;;;5.28;2.08;;;7.90;99.90;;;;;;6263248;22;20034;-82
2023/03/14 03:52:30;;;;;;;6.28;1.30;;;7.90;99.90;;;;;;6266678;22;20028;-82
2023/03/14 03:55:27;;;;;;;5.90;1.10;;;8.00;1.00;;;;;;6257066;22;20028;-82
2023/03/14 03:58:17;;;;;;;8.43;1.83;;;7.90;99.90;;;;;;6256827;22;20032;-83
2023/03/14 04:01:08;;;;;;;4.68;1.20;;;7.90;99.90;;;;;;6276842;22;20034;-82
2023/03/14 04:04:00;;;;;;;7.13;1.50;;;7.90;99.90;;;;;;6255851;22;20028;-84
2023/03/14 04:06:51;;;;;;;5.20;1.30;;;7.90;47.70;;;;;;6278868;22;20030;-82
2023/03/14 04:09:41;;;;;;;6.00;1.30;;;7.90;31.00;;;;;;6275392;22;20055;-83
2023/03/14 04:12:29;;;;;;;6.45;1.75;;;7.90;1.00;;;;;;6276834;22;20059;-83
2023/03/14 04:15:18;;;;;;;9.00;1.90;;;7.90;99.90;;;;;;6276302;22;20323;-83
2023/03/14 04:18:08;;;;;;;5.68;1.92;;;7.90;99.90;;;;;;6256706;22;20023;-81
2023/03/14 04:20:57;;;;;;;4.75;1.23;;;8.00;99.90;;;;;;6277962;22;20042;-81
2023/03/14 04:23:44;;;;;;;6.65;1.55;;;7.90;99.90;;;;;;6276007;22;20070;-81
2023/03/14 04:26:31;;;;;;;2.85;1.20;;;7.90;99.90;;;;;;6278007;22;20034;-83
2023/03/14 04:29:18;;;;;;;3.75;1.55;;;7.90;99.90;;;;;;6274581;22;20027;-80
2023/03/14 04:32:06;;;;;;;7.22;1.70;;;7.90;99.90;;;;;;6277775;22;20428;-81
2023/03/14 04:34:53;;;;;;;6.40;1.35;;;7.90;64.30;;;;;;6253290;22;20311;-82
2023/03/14 04:37:43;;;;;;;4.15;1.20;;;7.80;48.80;;;;;;6275906;22;20086;-80
2023/03/14 04:40:33;;;;;;;8.30;1.30;;;7.80;30.60;;;;;;6274876;22;20035;-80
2023/03/14 04:43:20;;;;;;;7.45;1.60;;;7.70;81.30;;;;;;6274374;22;20059;-82
2023/03/14 04:46:08;;;;;;;8.02;1.58;;;7.70;81.40;;;;;;6255007;22;20034;-82
2023/03/14 04:48:56;;;;;;;8.10;1.33;;;7.70;85.20;;;;;;6276874;22;20037;-83
2023/03/14 04:51:43;;;;;;;8.88;1.85;;;7.70;46.80;;;;;;6253964;22;20412;-80
2023/03/14 04:54:30;;;;;;;4.25;1.25;;;7.70;22.30;;;;;;6254493;22;20075;-81
2023/03/14 04:57:18;;;;;;;3.92;1.10;;;7.70;14.80;;;;;;6276191;22;20382;-83
2023/03/14 05:00:06;;;;;;;6.20;1.40;;;7.70;1.00;;;;;;6275713;22;20023;-80
2023/03/14 05:06:42;;;;;;;6.88;1.20;;;7.60;1.00;;;;;;6267886;22;20012;-79
2023/03/14 05:09:31;;;;;;;5.10;1.45;;;7.60;4.90;;;;;;6274833;22;20020;-82
2023/03/14 05:12:19;;;;;;;4.90;1.50;;;7.60;1.00;;;;;;6275556;22;20050;-80
2023/03/14 05:15:10;;;;;;;4.45;1.10;;;7.60;4.50;;;;;;6275325;22;20026;-81
2023/03/14 05:17:59;;;;;;;7.28;1.50;;;7.60;1.00;;;;;;6275800;22;20024;-82
2023/03/14 05:20:49;;;;;;;5.60;1.50;;;7.50;1.00;;;;;;6283802;22;20318;-82
2023/03/14 05:23:37;;;;;;;6.55;1.33;;;7.60;1.00;;;;;;6276908;22;20031;-81
2023/03/14 05:26:24;;;;;;;3.92;1.60;;;7.60;1.00;;;;;;6279269;22;20031;-81
2023/03/14 05:29:11;;;;;;;8.15;1.30;;;7.60;1.00;;;;;;6256293;22;20058;-82
2023/03/14 05:31:58;;;;;;;6.43;1.20;;;7.60;1.00;;;;;;6276959;22;20016;-82
2023/03/14 05:34:46;;;;;;;3.85;1.27;;;7.70;1.00;;;;;;6277321;22;20023;-81
2023/03/14 05:37:34;;;;;;;2.63;1.10;;;7.80;1.00;;;;;;6255505;22;20031;-79
2023/03/14 05:40:21;;;;;;;4.50;1.30;;;7.70;1.00;;;;;;6276738;22;20027;-84
2023/03/14 05:43:10;;;;;;;5.60;1.50;;;7.60;99.90;;;;;;6278592;22;20020;-80
2023/03/14 05:45:57;;;;;;;3.42;1.10;;;7.70;99.90;;;;;;6259322;22;20016;-82
2023/03/14 05:48:45;;;;;;;3.80;1.38;;;7.60;99.90;;;;;;6255542;22;20134;-84
2023/03/14 05:51:35;;;;;;;8.60;1.88;;;7.70;99.90;;;;;;6280477;22;20069;-85
2023/03/14 05:54:22;;;;;;;5.20;1.63;;;7.60;99.90;;;;;;6280887;22;20415;-85
2023/03/14 05:57:09;;;;;;;8.25;1.70;;;7.60;99.90;;;;;;6258870;22;20038;-80
2023/03/14 05:59:58;;;;;;;5.72;1.50;;;7.60;99.90;;;;;;6279456;22;20020;-84
2023/03/14 06:02:45;;;;;;;7.43;1.88;;;7.60;99.90;;;;;;6284552;22;20035;-80
2023/03/14 06:05:35;;;;;;;7.90;2.53;;;7.60;99.90;;;;;;6265080;22;20035;-82
2023/03/14 06:08:26;;;;;;;5.22;1.90;;;7.70;99.90;;;;;;6262512;22;20464;-83
2023/03/14 06:11:13;;;;;;;6.38;1.73;;;7.70;99.90;;;;;;6288767;22;20035;-81
2023/03/14 06:14:00;;;;;;;5.43;1.30;;;7.80;99.90;;;;;;6279904;22;20312;-82
2023/03/14 06:16:48;;;;;;;3.75;1.35;;;7.90;99.90;;;;;;6292478;22;20323;-81
2023/03/14 06:19:36;;;;;;;4.35;1.45;;;8.00;99.90;;;;;;6290640;22;20050;-81
2023/03/14 06:22:23;;;;;;;4.25;1.10;;;7.90;99.90;;;;;;6269579;22;20054;-81
2023/03/14 06:25:12;;;;;;;4.72;1.45;;;8.00;99.90;;;;;;6287217;22;20036;-83
2023/03/14 06:27:59;;;;;;;3.15;0.93;;;7.90;99.90;;;;;;6282019;22;20099;-82
2023/03/14 06:30:46;;;;;;;1.85;1.00;;;8.00;94.50;;;;;;6277734;22;20024;-83
2023/03/14 06:33:36;;;;;;;2.53;1.20;;;8.10;59.80;;;;;;6257758;22;20081;-84
2023/03/14 06:36:25;;;;;;;2.50;0.95;;;8.10;31.00;;;;;;6277021;22;20042;-81
2023/03/14 06:39:12;;;;;;;3.25;1.05;;;8.10;8.00;;;;;;6285793;22;20054;-82
2023/03/14 06:41:59;;;;;;;3.58;1.23;;;8.30;1.00;;;;;;6254487;22;20407;-82
2023/03/14 06:44:46;;;;;;;3.33;1.05;;;8.30;1.00;;;;;;6256344;22;20019;-90
2023/03/14 06:47:34;;;;;;;3.20;1.30;;;8.30;1.00;;;;;;6258997;22;20082;-92
2023/03/14 06:50:23;;;;;;;1.63;0.90;;;8.30;1.00;;;;;;6279809;22;20023;-93
2023/03/14 06:53:12;;;;;;;3.28;0.93;;;8.40;1.00;;;;;;6257953;22;20020;-89
2023/03/14 06:56:03;;;;;;;3.70;1.05;;;8.50;1.00;;;;;;6257096;22;20028;-91
2023/03/14 06:58:52;;;;;;;3.00;1.17;;;8.60;99.90;;;;;;6257658;22;20028;-88
2023/03/14 07:01:40;;;;;;;3.80;1.02;;;8.70;99.90;;;;;;6278362;22;20028;-93
2023/03/14 07:04:29;;;;;;;1.17;0.93;;;8.70;99.90;;;;;;6260986;22;20039;-90
2023/03/14 07:07:19;;;;;;;3.75;1.00;;;8.70;99.90;;;;;;6260554;22;20046;-91
2023/03/14 07:10:08;;;;;;;3.63;0.90;;;8.80;99.90;;;;;;6276762;22;20027;-91
2023/03/14 07:12:56;;;;;;;1.00;0.90;;;8.90;99.90;;;;;;6279205;22;20396;-89
2023/03/14 07:15:45;;;;;;;5.30;1.05;;;9.00;99.90;;;;;;6277588;22;20338;-88
2023/03/14 07:18:33;;;;;;;2.92;1.08;;;9.20;99.90;;;;;;6281681;22;20489;-89
2023/03/14 07:21:37;;;;;;;1.63;0.95;;;9.40;99.90;;;;;;6281904;22;20085;-92
2023/03/14 07:24:25;;;;;;;2.75;1.05;;;9.50;99.90;;;;;;6263641;22;20024;-90
2023/03/14 07:27:12;;;;;;;2.90;1.02;;;9.70;99.90;;;;;;6259941;22;20031;-90
2023/03/14 07:30:03;;;;;;;2.28;0.90;;;9.60;99.90;;;;;;6280068;22;20024;-92
2023/03/14 07:32:50;;;;;;;0.75;0.75;;;9.50;99.90;;;;;;6258935;22;20023;-92
2023/03/14 07:35:39;;;;;;;1.98;0.90;;;9.40;99.90;;;;;;6266876;22;20020;-92
2023/03/14 07:38:29;;;;;;;4.00;1.00;;;9.30;99.90;;;;;;6296611;22;20124;-90
2023/03/14 07:41:25;;;;;;;4.80;0.98;;;9.30;99.90;;;;;;6264964;22;20015;-89
2023/03/14 07:44:30;;;;;;;2.88;0.98;;;9.30;99.90;;;;;;6259230;22;20077;-95
2023/03/14 07:47:18;;;;;;;3.45;1.15;;;9.50;99.90;;;;;;6262773;22;20024;-91
2023/03/14 07:50:32;;;;;;;2.35;0.80;;;9.70;94.10;;;;;;6266865;22;20053;-92
2023/03/14 07:53:23;;;;;;;2.33;0.98;;;9.80;56.10;;;;;;6238414;22;20309;-92
2023/03/14 07:56:13;;;;;;;3.38;1.02;;;9.80;27.10;;;;;;6278676;22;20031;-93
2023/03/14 07:59:01;;;;;;;1.63;0.98;;;9.80;1.00;;;;;;6258374;22;20028;-94
2023/03/14 08:02:11;;;;;;;2.85;1.00;;;10.00;1.00;;;;;;6260738;22;20073;-90
2023/03/14 08:05:03;;;;;;;1.73;1.05;;;10.10;1.00;;;;;;6282025;22;20028;-91
2023/03/14 08:07:55;;;;;;;3.03;1.05;;;10.10;1.00;;;;;;6260357;22;20030;-92
2023/03/14 08:10:42;;;;;;;1.50;0.90;;;10.10;1.00;;;;;;6277371;22;20103;-91
2023/03/14 08:13:30;;;;;;;3.63;0.93;;;10.20;1.00;;;;;;6258307;22;20020;-90
2023/03/14 08:16:18;;;;;;;5.95;0.80;;;10.30;1.00;;;;;;6284113;22;20027;-89
2023/03/14 08:19:08;;;;;;;0.77;0.63;;;10.50;1.00;;;;;;6293371;22;20028;-94
2023/03/14 08:21:57;;;;;;;0.75;0.60;;;11.10;1.00;;;;;;6271635;22;20038;-89
2023/03/14 08:24:45;;;;;;;3.85;1.00;;;12.00;1.00;;;;;;6274854;22;20079;-86
2023/03/14 08:27:32;;;;;;;1.27;0.80;;;11.90;99.90;;;;;;6303182;22;20016;-87
2023/03/14 08:30:23;;;;;;;2.05;0.70;;;11.50;99.90;;;;;;6282677;22;20011;-88
2023/03/14 08:33:10;;;;;;;1.88;0.70;;;11.30;99.90;;;;;;6298891;22;20023;-92
2023/03/14 08:35:59;;;;;;;3.30;0.80;;;11.30;99.90;;;;;;6293478;22;20030;-89
2023/03/14 08:38:51;;;;;;;2.03;0.70;;;11.10;99.90;;;;;;6269942;22;20072;-86
2023/03/14 08:41:41;;;;;;;2.05;0.90;;;10.80;99.90;;;;;;6293209;22;20035;-89
2023/03/14 08:44:28;;;;;;;2.13;0.90;;;10.80;99.90;;;;;;6284295;22;20027;-89
2023/03/14 08:47:16;;;;;;;2.47;0.70;;;10.60;99.90;;;;;;6284341;22;20289;-90
2023/03/14 08:50:09;;;;;;;2.35;0.88;;;10.40;99.90;;;;;;6280985;22;20027;-90
2023/03/14 08:52:59;;;;;;;1.98;0.95;;;10.20;1.00;;;;;;6255697;22;20024;-91
2023/03/14 08:55:47;;;;;;;3.10;0.88;;;9.90;1.00;;;;;;6279724;22;20024;-90
2023/03/14 08:58:36;;;;;;;5.00;0.80;;;9.80;1.00;;;;;;6293440;22;20020;-91
2023/03/14 09:01:27;;;;;;;2.38;0.90;;;9.60;1.00;;;;;;6266735;22;20050;-92
2023/03/14 09:08:24;;;;;;;3.35;0.85;;;9.10;99.90;;;;;;6288739;22;20102;-93
2023/03/14 09:16:08;;;;;;;1.77;0.73;;;9.00;99.90;;;;;;6182027;23;20029;-92
2023/03/14 09:19:08;;;;;;;2.00;1.23;;;9.20;99.90;;;;;;6293021;22;20024;-94
2023/03/14 09:22:21;;;;;;;0.80;0.80;;;9.40;99.90;;;;;;6295646;22;20028;-94
2023/03/14 09:29:30;;;;;;;2.90;1.00;;;9.70;99.90;;;;;;6108045;23;20038;-93
2023/03/14 09:33:05;;;;;;;2.78;1.13;;;9.80;89.70;;;;;;6106786;23;20021;-92
2023/03/14 09:36:07;;;;;;;1.27;0.90;;;9.90;27.30;;;;;;6138858;23;20106;-94
2023/03/14 09:39:05;;;;;;;0.70;0.70;;;10.10;1.00;;;;;;6156730;23;20052;-91
2023/03/14 09:42:25;;;;;;;0.77;0.60;;;10.20;1.00;;;;;;6277517;22;20023;-91
2023/03/14 09:45:23;;;;;;;2.55;0.70;;;10.20;1.00;;;;;;6279225;22;20024;-90
2023/03/14 09:48:23;;;;;;;2.80;0.80;;;10.10;1.00;;;;;;6279382;22;20137;-92
2023/03/14 09:51:42;;;;;;;1.75;0.70;;;10.00;1.00;;;;;;6262977;22;20058;-92
2023/03/14 09:54:45;;;;;;;0.93;0.65;;;10.30;1.00;;;;;;6277148;22;20030;-93
2023/03/14 09:57:35;;;;;;;2.50;0.95;;;10.40;1.00;;;;;;6253458;22;20023;-89
2023/03/14 10:00:25;;;;;;;1.13;0.60;;;10.60;1.00;;;;;;6255363;22;20031;-89
2023/03/14 10:03:15;;;;;;;0.50;0.50;;;10.70;1.00;;;;;;6279332;22;20023;-89
2023/03/14 10:06:11;;;;;;;1.58;0.65;;;11.20;1.00;;;;;;6281055;22;20085;-87
2023/03/14 10:08:58;;;;;;;0.68;0.57;;;12.30;1.00;;;;;;6270015;22;20038;-89
2023/03/14 10:11:46;;;;;;;0.93;0.60;;;13.30;1.00;;;;;;6287671;22;20027;-88
2023/03/14 10:14:36;;;;;;;0.40;0.40;;;13.10;99.90;;;;;;6277385;22;20034;-88
2023/03/14 10:17:52;;;;;;;;;;;;;;;;;;;;;
2023/03/14 10:21:28;;;;;;;0.50;0.50;;;12.50;99.90;;;;;;6291148;22;20089;-91
2023/03/14 10:24:34;;;;;;;0.93;0.57;;;11.90;99.90;;;;;;6192178;23;20123;-91
2023/03/14 10:27:33;;;;;;;0.95;0.60;;;11.40;99.90;;;;;;6279131;22;20038;-91
2023/03/14 10:30:46;;;;;;;0.77;0.70;;;11.30;99.90;;;;;;6261104;22;20030;-93
2023/03/14 10:33:36;;;;;;;0.50;0.50;;;11.40;99.90;;;;;;6282578;22;20023;-94
2023/03/14 10:36:30;;;;;;;1.55;0.60;;;11.30;99.90;;;;;;6265908;22;20044;-93
2023/03/14 10:39:47;;;;;;;1.52;0.60;;;11.20;99.90;;;;;;6284657;22;20024;-92
2023/03/14 10:42:46;;;;;;;3.08;0.70;;;11.00;99.90;;;;;;6277113;22;20051;-90
2023/03/14 10:45:43;;;;;;;1.88;0.93;;;10.80;99.90;;;;;;6279341;22;20099;-89
2023/03/14 10:48:37;;;;;;;0.82;0.55;;;10.80;99.90;;;;;;6281540;22;20042;-91
2023/03/14 10:51:29;;;;;;;0.82;0.60;;;10.80;99.90;;;;;;6280813;22;20387;-90
2023/03/14 10:54:26;;;;;;;0.65;0.52;;;10.50;99.90;;;;;;6262191;22;20050;-88
2023/03/14 10:57:23;;;;;;;0.82;0.70;;;10.40;1.00;;;;;;6286717;22;20038;-91
2023/03/14 11:00:20;;;;;;;1.85;0.80;;;10.30;1.00;;;;;;6268888;22;20110;-92
2023/03/14 11:03:12;;;;;;;1.23;1.02;;;10.30;1.00;;;;;;6296944;22;20067;-88
2023/03/14 11:06:49;;;;;;;1.02;0.80;;;10.30;1.00;;;;;;6301579;22;20023;-89
2023/03/14 11:14:09;;;;;;;1.92;0.90;;;10.10;1.00;;;;;;6264491;23;20035;-90
2023/03/14 11:17:19;;;;;;;0.85;0.70;;;10.10;1.00;;;;;;6250603;23;20024;-90
2023/03/14 11:20:31;;;;;;;1.45;0.73;;;9.80;1.00;;;;;;6248300;23;20024;-88
2023/03/14 11:23:29;;;;;;;0.70;0.70;;;9.70;29.90;;;;;;6246585;23;20035;-87
2023/03/14 11:26:19;;;;;;;3.25;0.68;;;9.70;37.10;;;;;;6247127;23;20039;-91
2023/03/14 11:29:18;;;;;;;1.60;0.60;;;9.50;97.90;;;;;;6245975;23;20024;-90
2023/03/14 11:32:45;;;;;;;0.52;0.52;;;9.30;99.90;;;;;;6224832;23;20020;-89
2023/03/14 11:35:41;;;;;;;1.48;0.90;;;9.10;99.90;;;;;;6248049;23;20032;-90
2023/03/14 11:38:55;;;;;;;1.95;0.70;;;9.20;99.90;;;;;;6244712;23;20103;-89
2023/03/14 11:41:50;;;;;;;0.60;0.60;;;9.10;99.90;;;;;;6246779;23;20335;-90
2023/03/14 11:44:42;;;;;;;2.10;0.80;;;9.20;1.00;;;;;;6247380;23;20272;-88
2023/03/14 11:47:38;;;;;;;0.80;0.80;;;9.30;1.00;;;;;;6253126;23;20105;-88
2023/03/14 11:50:30;;;;;;;0.60;0.60;;;9.40;1.00;;;;;;6255978;22;20027;-88
2023/03/14 11:53:23;;;;;;;0.60;0.60;;;9.40;1.00;;;;;;6227116;23;20028;-89
2023/03/14 11:56:33;;;;;;;1.25;0.70;;;9.30;1.00;;;;;;6246680;23;20467;-87
2023/03/14 11:59:42;;;;;;;0.95;0.52;;;9.10;1.00;;;;;;6207102;23;20441;-87
2023/03/14 12:02:32;;;;;;;0.60;0.60;;;8.90;1.00;;;;;;6248969;23;20027;-87
2023/03/14 12:05:47;;;;;;;1.08;0.77;;;8.80;99.90;;;;;;6245116;23;20382;-88
2023/03/14 12:08:49;;;;;;;1.13;0.70;;;8.70;99.90;;;;;;6245268;23;20031;-88
2023/03/14 12:11:56;;;;;;;1.27;0.70;;;8.70;1.00;;;;;;6247432;23;20024;-88
2023/03/14 12:15:01;;;;;;;0.50;0.50;;;8.70;1.00;;;;;;6247698;22;20035;-90
2023/03/14 12:17:55;;;;;;;0.60;0.60;;;8.80;99.90;;;;;;6225559;23;20431;-90
2023/03/14 12:20:53;;;;;;;0.50;0.50;;;9.10;1.00;;;;;;6247339;23;20034;-91
2023/03/14 12:24:00;;;;;;;0.80;0.80;;;9.40;83.00;;;;;;6247879;23;20499;-90
2023/03/14 12:26:53;;;;;;;0.55;0.55;;;9.40;1.00;;;;;;6247218;23;20024;-90
2023/03/14 12:30:24;;;;;;;0.52;0.45;;;10.30;99.90;;;;;;6246704;23;20095;-88
2023/03/14 12:34:16;;;;;;;0.60;0.60;;;10.50;73.60;;;;;;6235983;23;20020;-92
2023/03/14 12:37:57;;;;;;;0.57;0.57;;;10.20;1.00;;;;;;6246016;23;20020;-92
2023/03/14 12:41:18;;;;;;;0.73;0.60;;;10.10;1.00;;;;;;6252711;23;20024;-93
2023/03/14 12:44:29;;;;;;;1.45;0.70;;;10.80;1.00;;;;;;6251553;23;20113;-92
2023/03/14 12:51:43;;;;;;;1.80;0.60;;;13.00;99.90;;;;;;6137556;23;20113;-93
2023/03/14 12:59:16;;;;;;;0.70;0.70;;;12.60;99.90;;;;;;6131736;23;20094;-92
2023/03/14 13:02:14;;;;;;;1.23;0.68;;;12.10;99.90;;;;;;6109646;23;20030;-90
2023/03/14 13:05:24;;;;;;;0.80;0.70;;;11.70;99.90;;;;;;6133308;23;20036;-93
2023/03/14 13:13:46;;;;;;;3.20;0.77;;;12.90;99.90;;;;;;6051372;23;20033;-92
2023/03/14 13:21:45;;;;;;;3.22;1.30;;;11.50;99.60;;;;;;6101926;23;20098;-92
2023/03/14 13:25:02;;;;;;;2.15;1.00;;;11.10;99.90;;;;;;6162028;23;20020;-90
2023/03/14 13:32:47;;;;;;;5.00;1.30;;;9.10;98.20;;;;;;6240046;22;20036;-87
2023/03/14 13:36:04;;;;;;;3.55;1.10;;;8.40;96.40;;;;;;6241235;22;20076;-87
2023/03/14 13:44:41;;;;;;;1.15;0.93;;;8.30;99.90;;;;;;6254835;22;20012;-91
2023/03/14 13:47:29;;;;;;;2.45;1.00;;;8.10;99.90;;;;;;6249972;22;20008;-88
2023/03/14 13:50:18;;;;;;;8.18;1.70;;;8.30;99.90;;;;;;6274002;22;20040;-93
2023/03/14 13:53:46;;;;;;;3.72;1.20;;;8.30;99.90;;;;;;6273577;22;20016;-90
2023/03/14 13:56:48;;;;;;;3.30;1.10;;;8.20;99.90;;;;;;6225894;23;20016;-89
2023/03/14 13:59:37;;;;;;;2.83;1.33;;;8.10;99.90;;;;;;6273512;22;20008;-90
2023/03/14 14:02:26;;;;;;;6.55;1.10;;;8.10;99.90;;;;;;6270325;22;20020;-91
2023/03/14 14:05:17;;;;;;;1.73;1.10;;;8.30;99.90;;;;;;6262537;23;20024;-91
2023/03/14 14:08:08;;;;;;;2.90;1.13;;;8.30;99.90;;;;;;6236705;23;20083;-92
2023/03/14 14:11:01;;;;;;;3.90;1.38;;;8.10;94.30;;;;;;6240343;23;20099;-92
2023/03/14 14:13:51;;;;;;;1.40;1.00;;;8.10;91.30;;;;;;6256848;23;20024;-90
2023/03/14 14:16:40;;;;;;;4.43;1.45;;;8.00;74.00;;;;;;6238850;23;20035;-90
2023/03/14 14:19:29;;;;;;;4.38;1.40;;;7.80;67.70;;;;;;6259494;23;20416;-90
2023/03/14 14:22:18;;;;;;;4.07;0.80;;;7.90;68.60;;;;;;6260344;22;20404;-91
2023/03/14 14:25:07;;;;;;;3.45;1.40;;;7.90;71.50;;;;;;6256964;23;20029;-91
2023/03/14 14:28:38;;;;;;;4.82;1.42;;;8.00;71.90;;;;;;6230973;23;20024;-92
2023/03/14 14:31:42;;;;;;;4.68;1.35;;;7.90;68.00;;;;;;6250667;23;20102;-91
2023/03/14 14:34:49;;;;;;;3.00;1.33;;;7.80;66.80;;;;;;6249517;23;20080;-91
2023/03/14 14:37:44;;;;;;;2.38;1.17;;;7.70;67.80;;;;;;6254369;23;20024;-91
2023/03/14 14:40:33;;;;;;;4.93;1.55;;;7.70;66.60;;;;;;6250953;22;20028;-93
2023/03/14 14:43:28;;;;;;;3.25;1.40;;;7.70;61.20;;;;;;6249522;23;20094;-91
2023/03/14 14:46:20;;;;;;;3.35;1.35;;;7.70;53.10;;;;;;6250970;23;20102;-93
2023/03/14 14:49:18;;;;;;;3.63;1.40;;;7.70;52.30;;;;;;6230356;23;20032;-92
2023/03/14 14:52:43;;;;;;;5.80;1.63;;;7.70;51.60;;;;;;6229952;23;20039;-92
2023/03/14 14:55:39;;;;;;;4.05;1.45;;;7.80;50.80;;;;;;6248253;23;20078;-88
2023/03/14 14:58:32;;;;;;;6.43;1.40;;;7.90;50.30;;;;;;6233422;23;20035;-91
2023/03/14 15:01:31;;;;;;;5.15;1.35;;;8.20;51.90;;;;;;6230864;23;20028;-91
2023/03/14 15:04:21;;;;;;;6.03;1.67;;;8.60;48.70;;;;;;6228455;23;20023;-91
2023/03/14 15:07:20;;;;;;;3.75;1.38;;;8.90;43.50;;;;;;6251348;23;20047;-90
2023/03/14 15:10:28;;;;;;;5.63;1.33;;;9.20;44.80;;;;;;6249412;23;20039;-93
2023/03/14 15:13:35;;;;;;;2.60;1.02;;;9.30;39.90;;;;;;6230708;23;20281;-92
2023/03/14 15:16:35;;;;;;;4.35;1.20;;;10.20;38.50;;;;;;6232629;23;20035;-91
2023/03/14 15:19:55;;;;;;;3.22;1.10;;;10.80;35.40;;;;;;6230590;23;20048;-91
2023/03/14 15:22:54;;;;;;;;;;;;;;;;;;;;;
2023/03/14 15:25:54;;;;;;;3.28;1.10;;;10.80;23.60;;;;;;6253792;22;20327;-94
2023/03/14 15:29:28;;;;;;;5.15;1.10;;;9.50;20.70;;;;;;6252173;23;20024;-92
2023/03/14 15:32:32;;;;;;;;;;;;;;;;;;;;;
2023/03/14 15:35:43;;;;;;;4.45;1.58;;;8.30;22.10;;;;;;6248974;23;20052;-92
2023/03/14 15:38:34;;;;;;;4.13;1.42;;;8.00;27.00;;;;;;6248931;23;20024;-90
2023/03/14 15:41:37;;;;;;;6.60;1.40;;;7.80;27.40;;;;;;6230012;23;20079;-93
2023/03/14 15:44:30;;;;;;;3.70;1.25;;;7.80;33.50;;;;;;6231355;23;20149;-92
2023/03/14 15:47:23;;;;;;;3.80;1.75;;;8.30;38.10;;;;;;6233669;22;20443;-92
2023/03/14 15:50:18;;;;;;;4.97;1.40;;;8.20;32.60;;;;;;6253324;22;20032;-93
2023/03/14 15:53:26;;;;;;;6.82;1.63;;;8.00;33.40;;;;;;6259405;23;20111;-93
2023/03/14 15:59:35;;;;;;;4.10;1.30;;;8.10;36.50;;;;;;6258494;23;20435;-92
2023/03/14 16:03:14;;;;;;;;;;;;;;;;;;;;;
2023/03/14 16:11:05;;;;;;;5.20;1.70;;;7.90;39.10;;;;;;6121483;23;20018;-93
2023/03/14 16:13:58;;;;;;;4.32;1.70;;;7.70;43.40;;;;;;6164609;23;20035;-93
2023/03/14 16:18:01;;;;;;;3.13;2.00;;;8.00;44.70;;;;;;6095937;23;20033;-92
2023/03/14 16:21:57;;;;;;;5.82;2.05;;;8.70;42.60;;;;;;6086092;23;20027;-93
2023/03/14 16:25:41;;;;;;;5.07;2.83;;;8.30;41.80;;;;;;6084568;23;20065;-92
2023/03/14 16:29:07;;;;;;;6.55;1.90;;;7.80;47.30;;;;;;6085144;23;20051;-88
2023/03/14 16:31:57;;;;;;;6.30;1.65;;;7.30;54.00;;;;;;6104314;23;20032;-92